Aérodrome :
LOGIN :

S'inscrire | Disclaimer

   EN    FR    IT 

 










Légende :    VFR   VFR Marginal   IFR   IFR Intensif   IFR Très Intensif
Visi : 
Plafond : 
>= 8 km
>= 3000ft
5 à 8 km
1000 à 3000 ft
1500m à 5 km
500 à 1000 ft
800 à 1500m
200 à 500 ft
< 800m
< 200 ft
Symboles :   Orages  Brouillard  Fortes neiges  Fortes précipitations  Vent > 20 kt
SIGMETs :   Divers  Orages  Givrage  Turbulence  Onde Orograph.  Cendres Volcan.






- Altitude de l'aérodrome : 479 ft
- Code IATA : DOL


LFRG - Deauville

DERNIER METAR :
  • 150130Z AUTO 22015KT 9999 -RA OVC021/// ///CB 10/08 Q0994

METARs EXPIRÉS :
  • 150100Z AUTO 22015G26KT 9999 BKN021 OVC028 10/08 Q0994
  • 150030Z AUTO 22015KT 9999 FEW006/// BKN010/// BKN030/// ///TCU 10/09 Q0994
  • 150000Z AUTO 20017G30KT 8000 -RADZ OVC011/// ///CB 10/09 Q0993
  • 142330Z AUTO 19015KT 6000 RA OVC012/// ///CB 10/08 Q0994
  • 142300Z AUTO 20015KT 170V230 9999 -DZ OVC014 10/08 Q0994

Prévision TAF périmée.
ATIS : +33 2 31 65 65 36



MET'MAP, la Météo Aéronautique d'un coup d'oeil ! - Copyright ORBIFLY Décembre 2007 - Disclaimer

ORBIFLY MET'MAP TEAM :

Programmation & Développement : Alexandra Zaïnal
Sur une idée originale de : Baudouin d'Aumeries
Assistance à la programmation : Marc-Olivier Méhu
Soutien technique & logistique : Manuel Goepfert

Contact : metmap@orbifly.com




SOURCES & CREDITS :

   NOAA